Archival Weather

Aeroparque Jorge Newbery

Buenos Aires, Argentina (SABE)

Report from: Thursday, September 21, 2023 8:21 AM -03
Current time: Saturday, March 2, 2024 7:51 AM -03

Current weather – Weather history – Daily summaries
Weather forecast

Temperature17.0°C (62.6°F)
Dew point17.0°C (62.6°F)
Winds 3 kts (1.5 m/s, 3.5 mph) Vrb
Winds variableWinds variable
Visibility3.7 mi. (6 km)
Clouds Ceiling: Broken clouds 1,600 ft. (488 m)
Altimeter29.80 in.Hg (1009 mB)
Relative humidity100 %
Density altitude645 ft. (197 m)
Remarks No significant changes expected in the next two hours
Special weather observation
Flight conditions Marginal Visual Meteorological Conditions
Raw dataSPECI SABE 211121Z VRB03KT 6000 BKN016 17/17 Q1009 NOSIG RMK PP000
An error has occurred. This application may no longer respond until reloaded. Reload 🗙